createdAt,value
2022-11-16T00:01:45.009Z,39.20
2022-11-16T00:04:17.557Z,39.20
2022-11-16T00:06:55.495Z,39.20
2022-11-16T00:09:24.773Z,39.20
2022-11-16T00:11:57.094Z,39.20
2022-11-16T00:14:30.203Z,39.20
2022-11-16T00:17:01.907Z,39.20
2022-11-16T00:19:32.939Z,39.10
2022-11-16T00:22:02.002Z,39.10
2022-11-16T00:24:33.446Z,39.10
2022-11-16T00:27:02.811Z,39.10
2022-11-16T00:29:36.660Z,39.10
2022-11-16T00:32:05.879Z,39.10
2022-11-16T00:34:34.435Z,39.10
2022-11-16T00:37:06.163Z,39.10
2022-11-16T00:39:36.176Z,39.10
2022-11-16T00:42:09.500Z,39.10
2022-11-16T00:44:42.330Z,39.10
2022-11-16T00:47:12.287Z,39.10
2022-11-16T00:49:44.332Z,39.10
2022-11-16T00:52:15.828Z,39.10
2022-11-16T00:54:53.765Z,39.20
2022-11-16T00:57:24.468Z,39.10
2022-11-16T00:59:52.948Z,39.10
2022-11-16T01:02:22.298Z,39.10
2022-11-16T01:04:53.077Z,39.10
2022-11-16T01:07:28.060Z,39.10
2022-11-16T01:09:57.535Z,39.10
2022-11-16T01:12:28.368Z,39.80
2022-11-16T01:14:59.731Z,39.10
2022-11-16T01:17:33.032Z,39.10
2022-11-16T01:20:02.578Z,39.10
2022-11-16T01:22:33.514Z,39.80
2022-11-16T01:25:01.741Z,39.10
2022-11-16T01:27:29.755Z,39.10
2022-11-16T01:29:58.728Z,39.10
2022-11-16T01:32:29.441Z,39.00
2022-11-16T01:34:57.735Z,39.10
2022-11-16T01:37:33.046Z,39.10
2022-11-16T01:40:04.960Z,39.00
2022-11-16T01:42:36.869Z,39.00
2022-11-16T01:45:40.869Z,39.10
2022-11-16T01:48:21.302Z,39.00
2022-11-16T01:50:51.540Z,39.10
2022-11-16T01:53:22.642Z,39.00
2022-11-16T01:55:58.440Z,39.00
2022-11-16T01:58:33.515Z,39.00
2022-11-16T02:01:05.654Z,39.00
2022-11-16T02:03:36.967Z,39.00
2022-11-16T02:06:37.858Z,39.00
2022-11-16T02:09:55.445Z,39.00
2022-11-16T02:12:48.775Z,39.00
2022-11-16T02:15:36.575Z,39.00
2022-11-16T02:18:23.377Z,39.00
2022-11-16T02:21:02.595Z,39.10
2022-11-16T02:23:50.044Z,39.10
2022-11-16T02:26:27.396Z,39.00
2022-11-16T02:29:20.728Z,39.10
2022-11-16T02:32:09.472Z,39.00
2022-11-16T02:35:00.322Z,39.00
2022-11-16T02:37:41.833Z,39.00
2022-11-16T02:40:18.064Z,39.10
2022-11-16T02:43:00.430Z,39.00
2022-11-16T02:45:39.826Z,39.00
2022-11-16T02:48:31.870Z,39.00
2022-11-16T02:51:01.420Z,39.00
2022-11-16T02:53:40.181Z,39.00
2022-11-16T02:56:16.186Z,39.10
2022-11-16T02:58:47.574Z,39.10
2022-11-16T03:01:34.966Z,39.00
2022-11-16T03:04:43.630Z,39.00
2022-11-16T03:07:16.595Z,39.00
2022-11-16T03:09:49.567Z,39.00
2022-11-16T03:12:27.043Z,39.00
2022-11-16T03:15:05.874Z,39.10
2022-11-16T03:17:44.747Z,39.00
2022-11-16T03:20:38.705Z,39.00
2022-11-16T03:23:11.125Z,39.00
2022-11-16T03:25:57.792Z,39.10
2022-11-16T03:28:36.102Z,39.00
2022-11-16T03:31:30.589Z,39.00
2022-11-16T03:34:10.986Z,39.00
2022-11-16T03:36:48.325Z,39.00
2022-11-16T03:39:24.048Z,39.00
2022-11-16T03:42:02.706Z,39.10
2022-11-16T03:44:43.144Z,39.10
2022-11-16T03:47:16.671Z,39.10
2022-11-16T03:49:50.718Z,39.00
2022-11-16T03:52:20.754Z,39.10
2022-11-16T03:54:49.400Z,39.10
2022-11-16T03:57:21.639Z,39.00
2022-11-16T03:59:49.715Z,39.10
2022-11-16T04:02:20.429Z,39.10
2022-11-16T04:05:07.521Z,39.10
2022-11-16T04:07:55.824Z,39.00
2022-11-16T04:10:44.159Z,39.00
2022-11-16T04:13:35.730Z,39.00
2022-11-16T04:16:24.452Z,39.00
2022-11-16T04:19:10.844Z,39.00
2022-11-16T04:22:16.003Z,39.10
2022-11-16T04:25:02.961Z,39.10
2022-11-16T04:27:52.076Z,39.10
2022-11-16T04:30:28.129Z,39.10
2022-11-16T04:33:18.380Z,39.10
2022-11-16T04:36:07.349Z,39.00
2022-11-16T04:38:41.031Z,39.20
2022-11-16T04:41:35.147Z,39.10
2022-11-16T04:44:07.602Z,39.10
2022-11-16T04:46:57.147Z,39.10
2022-11-16T04:49:27.753Z,39.70
2022-11-16T04:51:56.203Z,39.10
2022-11-16T04:54:29.839Z,39.00
2022-11-16T04:56:58.928Z,39.00
2022-11-16T04:59:31.210Z,39.00
2022-11-16T05:02:11.745Z,39.10
2022-11-16T05:04:48.563Z,39.00
2022-11-16T05:07:15.470Z,39.00
2022-11-16T05:09:51.547Z,39.10
2022-11-16T05:12:36.706Z,39.10
2022-11-16T05:15:10.864Z,39.00
2022-11-16T05:17:43.866Z,39.10
2022-11-16T05:20:36.409Z,39.00
2022-11-16T05:23:04.837Z,39.00
2022-11-16T05:25:36.923Z,39.00
2022-11-16T05:28:04.618Z,39.00
2022-11-16T05:30:33.155Z,39.00
2022-11-16T05:33:04.889Z,39.00
2022-11-16T05:35:39.592Z,39.00
2022-11-16T05:38:09.281Z,39.10
2022-11-16T05:40:40.353Z,39.10
2022-11-16T05:43:10.416Z,39.10
2022-11-16T05:45:36.461Z,39.10
2022-11-16T05:48:07.918Z,39.00
2022-11-16T05:50:42.814Z,39.00
2022-11-16T05:53:22.397Z,39.00
2022-11-16T05:55:52.822Z,39.00
2022-11-16T05:58:22.600Z,39.00
2022-11-16T06:00:53.877Z,39.00
2022-11-16T06:03:32.948Z,39.30
2022-11-16T06:06:06.516Z,39.20
2022-11-16T06:08:37.038Z,39.20
2022-11-16T06:11:10.253Z,39.10
2022-11-16T06:13:39.576Z,38.90
2022-11-16T06:16:13.933Z,38.80
2022-11-16T06:18:47.732Z,38.80
2022-11-16T06:21:20.398Z,38.60
2022-11-16T06:23:52.969Z,38.60
2022-11-16T06:26:22.994Z,38.60
2022-11-16T06:28:50.833Z,38.60
2022-11-16T06:31:25.347Z,38.50
2022-11-16T06:33:54.101Z,38.60
2022-11-16T06:36:22.830Z,38.60
2022-11-16T06:38:48.954Z,38.60
2022-11-16T06:41:18.653Z,38.60
2022-11-16T06:43:50.421Z,38.60
2022-11-16T06:46:27.429Z,38.50
2022-11-16T06:48:59.849Z,38.50
2022-11-16T06:51:46.783Z,38.50
2022-11-16T06:54:20.317Z,38.50
2022-11-16T06:56:49.478Z,38.50
2022-11-16T06:59:22.566Z,38.50
2022-11-16T07:01:54.409Z,38.40
2022-11-16T07:04:27.870Z,38.40
2022-11-16T07:07:01.141Z,38.30
2022-11-16T07:09:36.264Z,38.40
2022-11-16T07:12:10.506Z,38.30
2022-11-16T07:14:37.069Z,38.40
2022-11-16T07:17:09.317Z,38.40
2022-11-16T07:19:39.533Z,38.50
2022-11-16T07:22:13.068Z,38.50
2022-11-16T07:24:45.257Z,38.50
2022-11-16T07:27:17.125Z,38.50
2022-11-16T07:29:48.172Z,38.50
2022-11-16T07:32:14.277Z,38.50
2022-11-16T07:34:44.329Z,38.50
2022-11-16T07:37:15.853Z,38.40
2022-11-16T07:39:47.168Z,38.40
2022-11-16T07:42:18.313Z,38.60
2022-11-16T07:44:50.490Z,38.60
2022-11-16T07:47:23.387Z,38.60
2022-11-16T07:49:53.970Z,38.70
2022-11-16T07:52:24.160Z,38.70
2022-11-16T07:54:55.825Z,38.80
2022-11-16T07:57:27.914Z,38.60
2022-11-16T07:59:59.757Z,38.60
2022-11-16T08:02:31.045Z,38.60
2022-11-16T08:04:59.043Z,38.60
2022-11-16T08:07:28.162Z,38.80
2022-11-16T08:09:58.066Z,38.70
2022-11-16T08:12:29.534Z,38.50
2022-11-16T08:15:01.131Z,38.40
2022-11-16T08:17:31.359Z,38.30
2022-11-16T08:20:04.121Z,38.40
2022-11-16T08:22:35.037Z,38.40
2022-11-16T08:25:09.041Z,38.50
2022-11-16T08:27:39.840Z,38.70
2022-11-16T08:30:10.924Z,38.70
2022-11-16T08:32:44.249Z,38.80
2022-11-16T08:35:15.428Z,38.70
2022-11-16T08:37:48.414Z,38.60
2022-11-16T08:40:17.540Z,38.50
2022-11-16T08:42:48.527Z,38.50
2022-11-16T08:45:22.150Z,38.40
2022-11-16T08:47:48.209Z,38.40
2022-11-16T08:50:17.956Z,38.40
2022-11-16T08:52:48.365Z,38.50
2022-11-16T08:55:16.609Z,38.50
2022-11-16T08:57:42.752Z,38.40
2022-11-16T09:00:23.271Z,38.50
2022-11-16T09:02:52.377Z,38.60
2022-11-16T09:05:26.912Z,38.50
2022-11-16T09:07:57.478Z,38.50
2022-11-16T09:10:27.837Z,38.50
2022-11-16T09:12:59.445Z,38.50
2022-11-16T09:15:35.183Z,38.50
2022-11-16T09:18:05.767Z,38.50
2022-11-16T09:20:39.046Z,38.60
2022-11-16T09:23:10.746Z,38.40
2022-11-16T09:25:40.868Z,38.40
2022-11-16T09:28:07.883Z,38.40
2022-11-16T09:30:40.242Z,38.50
2022-11-16T09:33:11.395Z,38.40
2022-11-16T09:35:39.620Z,38.40
2022-11-16T09:38:19.757Z,38.40
2022-11-16T09:41:02.291Z,38.40
2022-11-16T09:43:52.055Z,38.40
2022-11-16T09:46:37.955Z,38.40
2022-11-16T09:49:24.689Z,38.40
2022-11-16T09:52:03.094Z,38.50
2022-11-16T09:54:34.811Z,38.50
2022-11-16T09:57:12.456Z,38.50
2022-11-16T09:59:52.175Z,38.50
2022-11-16T10:02:23.445Z,38.50
2022-11-16T10:05:16.465Z,38.50
2022-11-16T10:07:56.172Z,38.50
2022-11-16T10:10:50.637Z,38.60
2022-11-16T10:13:38.942Z,38.60
2022-11-16T10:16:23.601Z,38.60
2022-11-16T10:19:22.359Z,38.60
2022-11-16T10:22:17.490Z,38.70
2022-11-16T10:25:07.236Z,38.60
2022-11-16T10:28:15.245Z,38.60
2022-11-16T10:31:08.931Z,38.60
2022-11-16T10:33:39.306Z,38.90
2022-11-16T10:36:20.409Z,38.80
2022-11-16T10:38:55.596Z,38.80
2022-11-16T10:41:39.137Z,38.70
2022-11-16T10:44:34.453Z,38.80
2022-11-16T10:47:32.458Z,38.70
2022-11-16T10:50:05.472Z,38.60
2022-11-16T10:52:44.240Z,38.60
2022-11-16T10:55:32.449Z,38.60
2022-11-16T10:58:06.622Z,38.60
2022-11-16T11:00:43.669Z,38.60
2022-11-16T11:03:19.440Z,38.60
2022-11-16T11:06:08.825Z,38.60
2022-11-16T11:08:42.083Z,38.50
2022-11-16T11:11:57.531Z,38.50
2022-11-16T11:14:23.652Z,38.50
2022-11-16T11:16:53.513Z,38.40
2022-11-16T11:19:32.484Z,38.40
2022-11-16T11:22:03.766Z,38.40
2022-11-16T11:24:49.554Z,38.40
2022-11-16T11:27:28.117Z,38.40
2022-11-16T11:30:01.215Z,38.30
2022-11-16T11:32:40.212Z,38.40
2022-11-16T11:35:25.950Z,38.40
2022-11-16T11:38:08.348Z,38.40
2022-11-16T11:40:39.924Z,38.60
2022-11-16T11:43:27.788Z,38.70
2022-11-16T11:46:14.668Z,38.60
2022-11-16T11:49:03.941Z,38.60
2022-11-16T11:51:52.315Z,38.60
2022-11-16T11:54:43.131Z,38.60
2022-11-16T11:57:26.826Z,38.60
2022-11-16T12:00:00.349Z,38.60
2022-11-16T12:02:32.249Z,38.70
2022-11-16T12:05:26.132Z,38.70
2022-11-16T12:08:24.769Z,38.70
2022-11-16T12:10:57.560Z,38.70
2022-11-16T12:13:50.893Z,38.80
2022-11-16T12:16:28.954Z,38.80
2022-11-16T12:19:22.507Z,38.80
2022-11-16T12:22:01.082Z,38.80
2022-11-16T12:25:20.411Z,38.80
2022-11-16T12:28:18.269Z,38.80
2022-11-16T12:30:58.056Z,38.80
2022-11-16T12:33:48.265Z,39.00
2022-11-16T12:36:53.692Z,39.00
2022-11-16T12:39:37.142Z,38.80
2022-11-16T12:42:27.072Z,38.80
2022-11-16T12:45:29.013Z,38.80
2022-11-16T12:48:25.982Z,38.80
2022-11-16T12:51:31.600Z,38.80
2022-11-16T12:54:23.517Z,38.90
2022-11-16T12:57:15.728Z,38.90
2022-11-16T13:00:03.516Z,38.90
2022-11-16T13:02:44.647Z,39.00
2022-11-16T13:05:39.849Z,39.00
2022-11-16T13:08:32.502Z,38.90
2022-11-16T13:11:18.541Z,38.90
2022-11-16T13:14:05.797Z,38.80
2022-11-16T13:16:37.307Z,38.80
2022-11-16T13:19:08.522Z,38.80
2022-11-16T13:22:03.797Z,38.90
2022-11-16T13:25:08.981Z,38.80
2022-11-16T13:27:37.129Z,38.60
2022-11-16T13:30:24.334Z,38.50
2022-11-16T13:33:20.673Z,38.80
2022-11-16T13:35:50.986Z,39.20
2022-11-16T13:38:56.531Z,38.40
2022-11-16T13:41:41.671Z,38.60
2022-11-16T13:44:23.701Z,38.40
2022-11-16T13:47:06.385Z,38.40
2022-11-16T13:50:04.902Z,38.40
2022-11-16T13:55:46.853Z,38.10
2022-11-16T13:58:21.860Z,38.20
2022-11-16T14:01:07.104Z,38.20
2022-11-16T14:03:40.093Z,38.10
2022-11-16T14:06:31.040Z,38.10
2022-11-16T14:09:01.526Z,38.10
2022-11-16T14:11:40.295Z,38.10
2022-11-16T14:14:15.671Z,38.10
2022-11-16T14:16:51.953Z,38.00
2022-11-16T14:19:46.624Z,38.00
2022-11-16T14:22:55.355Z,37.90
2022-11-16T14:26:09.506Z,37.80
2022-11-16T14:28:59.419Z,37.70
2022-11-16T14:31:46.782Z,37.60
2022-11-16T14:34:47.079Z,37.70
2022-11-16T14:37:27.397Z,37.70
2022-11-16T14:40:13.710Z,37.70
2022-11-16T14:43:16.847Z,37.70
2022-11-16T14:46:02.589Z,37.60
2022-11-16T14:48:33.821Z,37.50
2022-11-16T14:51:12.969Z,37.50
2022-11-16T14:53:54.955Z,37.50
2022-11-16T14:56:26.005Z,37.40
2022-11-16T14:59:00.632Z,37.40
2022-11-16T15:01:38.530Z,37.30
2022-11-16T15:04:13.811Z,37.30
2022-11-16T15:07:07.409Z,37.20
2022-11-16T15:09:54.530Z,37.30
2022-11-16T15:12:40.816Z,37.20
2022-11-16T15:15:07.217Z,37.10
2022-11-16T15:17:35.334Z,37.10
2022-11-16T15:20:25.110Z,37.10
2022-11-16T15:23:03.079Z,37.10
2022-11-16T15:25:42.159Z,37.00
2022-11-16T15:28:35.920Z,37.00
2022-11-16T15:31:15.002Z,37.00
2022-11-16T15:33:43.258Z,37.00
2022-11-16T15:36:34.796Z,37.00
2022-11-16T15:39:03.286Z,36.90
2022-11-16T15:41:35.505Z,36.90
2022-11-16T15:44:15.513Z,36.80
2022-11-16T15:46:50.816Z,36.80
2022-11-16T15:49:37.477Z,36.80
2022-11-16T15:52:04.966Z,36.80
2022-11-16T15:54:57.555Z,36.90
2022-11-16T15:57:26.590Z,36.90
2022-11-16T15:59:58.906Z,36.80
2022-11-16T16:02:36.377Z,36.70
2022-11-16T16:05:07.681Z,36.60
2022-11-16T16:07:39.184Z,36.70
2022-11-16T16:10:31.753Z,36.60
2022-11-16T16:13:26.594Z,36.50
2022-11-16T16:16:22.799Z,36.50
2022-11-16T16:19:01.612Z,36.50
2022-11-16T16:21:45.295Z,36.50
2022-11-16T16:24:42.477Z,36.50
2022-11-16T16:27:27.168Z,36.50
2022-11-16T16:30:03.678Z,36.50
2022-11-16T16:32:38.510Z,36.50
2022-11-16T16:35:20.452Z,36.50
2022-11-16T16:38:04.242Z,36.50
2022-11-16T16:40:35.770Z,36.60
2022-11-16T16:43:08.077Z,36.50
2022-11-16T16:45:46.393Z,36.50
2022-11-16T16:48:16.940Z,36.60
2022-11-16T16:50:49.371Z,36.60
2022-11-16T16:53:23.248Z,36.50
2022-11-16T16:55:59.024Z,36.60
2022-11-16T16:58:28.964Z,36.50
2022-11-16T17:01:02.857Z,36.60
2022-11-16T17:03:35.215Z,36.60
2022-11-16T17:06:08.404Z,36.60
2022-11-16T17:08:41.131Z,36.60
2022-11-16T17:11:16.801Z,36.60
2022-11-16T17:13:52.819Z,36.70
2022-11-16T17:16:28.784Z,36.70
2022-11-16T17:19:05.211Z,36.70
2022-11-16T17:21:38.286Z,36.70
2022-11-16T17:24:05.323Z,36.70
2022-11-16T17:26:36.688Z,36.70
2022-11-16T17:29:04.233Z,36.70
2022-11-16T17:31:30.373Z,36.70
2022-11-16T17:34:03.903Z,36.70
2022-11-16T17:36:37.698Z,36.70
2022-11-16T17:39:11.578Z,36.70
2022-11-16T17:41:47.031Z,36.70
2022-11-16T17:44:22.465Z,36.70
2022-11-16T17:46:50.695Z,36.80
2022-11-16T17:49:22.254Z,36.80
2022-11-16T17:51:49.924Z,36.80
2022-11-16T17:54:21.621Z,36.70
2022-11-16T17:56:55.765Z,36.80
2022-11-16T17:59:32.477Z,36.70
2022-11-16T18:02:03.085Z,36.80
2022-11-16T18:04:34.541Z,37.00
2022-11-16T18:07:02.456Z,37.10
2022-11-16T18:09:31.996Z,37.10
2022-11-16T18:12:03.874Z,37.10
2022-11-16T18:14:30.182Z,37.00
2022-11-16T18:16:58.805Z,37.10
2022-11-16T18:19:28.915Z,37.00
2022-11-16T18:22:04.058Z,37.00
2022-11-16T18:24:34.996Z,37.00
2022-11-16T18:27:33.961Z,37.00
2022-11-16T18:30:07.713Z,37.10
2022-11-16T18:32:41.240Z,37.10
2022-11-16T18:35:23.516Z,37.10
2022-11-16T18:37:55.178Z,37.10
2022-11-16T18:40:25.273Z,37.10
2022-11-16T18:42:58.658Z,37.10
2022-11-16T18:45:29.076Z,37.10
2022-11-16T18:48:01.678Z,37.10
2022-11-16T18:50:33.030Z,37.10
2022-11-16T18:53:05.015Z,37.10
2022-11-16T18:55:35.395Z,37.10
2022-11-16T18:58:22.864Z,37.10
2022-11-16T19:01:03.683Z,37.10
2022-11-16T19:03:43.605Z,37.20
2022-11-16T19:06:16.414Z,37.10
2022-11-16T19:08:55.550Z,37.10
2022-11-16T19:11:27.709Z,37.80
2022-11-16T19:14:02.239Z,37.10
2022-11-16T19:16:45.225Z,37.10
2022-11-16T19:19:21.020Z,37.10
2022-11-16T19:21:48.817Z,37.10
2022-11-16T19:24:17.248Z,37.10
2022-11-16T19:26:48.838Z,37.20
2022-11-16T19:29:19.479Z,37.10
2022-11-16T19:31:51.125Z,37.20
2022-11-16T19:34:22.564Z,37.10
2022-11-16T19:36:56.645Z,37.80
2022-11-16T19:39:32.683Z,37.20
2022-11-16T19:42:11.688Z,37.10
2022-11-16T19:44:43.270Z,37.20
2022-11-16T19:47:14.729Z,37.10
2022-11-16T19:49:41.478Z,37.20
2022-11-16T19:52:17.842Z,37.20
2022-11-16T19:54:49.250Z,37.20
2022-11-16T19:57:24.477Z,37.20
2022-11-16T19:59:53.269Z,37.20
2022-11-16T20:02:25.291Z,37.20
2022-11-16T20:04:56.843Z,37.20
2022-11-16T20:07:28.149Z,37.20
2022-11-16T20:09:59.088Z,37.80
2022-11-16T20:12:38.817Z,37.20
2022-11-16T20:15:10.229Z,37.20
2022-11-16T20:17:41.438Z,37.80
2022-11-16T20:20:17.250Z,37.20
2022-11-16T20:22:59.271Z,37.20
2022-11-16T20:25:36.299Z,37.90
2022-11-16T20:28:11.695Z,37.20
2022-11-16T20:30:50.200Z,37.20
2022-11-16T20:33:20.765Z,37.20
2022-11-16T20:35:58.985Z,37.20
2022-11-16T20:38:32.692Z,37.20
2022-11-16T20:41:22.853Z,37.20
2022-11-16T20:43:58.697Z,37.20
2022-11-16T20:46:31.289Z,37.20
2022-11-16T20:49:04.050Z,37.20
2022-11-16T20:51:34.001Z,37.20
2022-11-16T20:54:07.905Z,37.20
2022-11-16T20:57:03.424Z,37.20
2022-11-16T20:59:33.496Z,37.20
2022-11-16T21:02:07.173Z,37.20
2022-11-16T21:04:36.684Z,37.20
2022-11-16T21:07:06.920Z,37.20
2022-11-16T21:10:05.644Z,37.20
2022-11-16T21:12:59.756Z,37.20
2022-11-16T21:15:47.275Z,37.20
2022-11-16T21:18:20.550Z,37.30
2022-11-16T21:20:46.868Z,37.20
2022-11-16T21:23:17.994Z,37.20
2022-11-16T21:25:48.887Z,37.20
2022-11-16T21:28:25.780Z,37.20
2022-11-16T21:31:18.905Z,37.20
2022-11-16T21:33:50.255Z,37.20
2022-11-16T21:36:29.759Z,37.20
2022-11-16T21:39:08.705Z,37.90
2022-11-16T21:41:45.133Z,37.20
2022-11-16T21:44:14.894Z,37.30
2022-11-16T21:46:50.036Z,37.20
2022-11-16T21:49:23.450Z,37.30
2022-11-16T21:51:58.500Z,37.30
2022-11-16T21:54:47.988Z,37.30
2022-11-16T21:57:22.597Z,37.30
2022-11-16T22:00:00.888Z,37.40
2022-11-16T22:02:34.715Z,37.30
2022-11-16T22:05:24.484Z,37.30
2022-11-16T22:07:53.599Z,37.30
2022-11-16T22:10:24.523Z,37.30
2022-11-16T22:12:59.974Z,37.40
2022-11-16T22:15:31.058Z,37.40
2022-11-16T22:18:01.020Z,37.40
2022-11-16T22:20:41.593Z,37.40
2022-11-16T22:23:12.836Z,37.40
2022-11-16T22:25:44.276Z,37.50
2022-11-16T22:28:21.052Z,37.40
2022-11-16T22:30:53.734Z,37.50
2022-11-16T22:33:27.350Z,37.40
2022-11-16T22:35:56.198Z,37.40
2022-11-16T22:38:30.031Z,37.40
2022-11-16T22:41:11.411Z,38.10
2022-11-16T22:43:48.004Z,38.10
2022-11-16T22:46:38.481Z,37.40
2022-11-16T22:49:08.184Z,37.40
2022-11-16T22:51:36.339Z,37.40
2022-11-16T22:54:14.791Z,37.40
2022-11-16T22:56:51.656Z,37.40
2022-11-16T22:59:20.340Z,37.40
2022-11-16T23:01:46.462Z,37.40
2022-11-16T23:04:15.051Z,37.50
2022-11-16T23:07:10.114Z,37.50
2022-11-16T23:09:42.056Z,37.50
2022-11-16T23:12:28.745Z,37.50
2022-11-16T23:15:22.244Z,37.50
2022-11-16T23:17:55.090Z,37.50
2022-11-16T23:20:46.691Z,37.50
2022-11-16T23:23:44.427Z,37.50
2022-11-16T23:26:46.097Z,37.50
2022-11-16T23:29:17.890Z,37.40
2022-11-16T23:31:49.528Z,37.40
2022-11-16T23:34:27.410Z,37.40
2022-11-16T23:37:07.147Z,37.40
2022-11-16T23:39:38.782Z,37.40
2022-11-16T23:42:30.958Z,37.40
2022-11-16T23:45:03.767Z,37.40
2022-11-16T23:47:42.127Z,37.30
2022-11-16T23:50:13.778Z,37.40
2022-11-16T23:52:39.838Z,37.40
2022-11-16T23:55:12.479Z,37.40
2022-11-16T23:57:46.880Z,37.40
